Time,TemperatureF,DewpointF,PressureIn,WindDirection,WindDirectionDegrees,WindSpeedMPH,WindSpeedGustMPH,Humidity,HourlyPrecipIn,Conditions,Clouds,dailyrainin,SoftwareType,DateUTC
2013-07-13 00:01:00,72.2,64.5,30.05,South,180,0.8,0.8,77,0.00,,,0.05,WUHU216HW,2013-07-13 04:01:00,
2013-07-13 00:02:00,72.2,64.5,30.05,South,180,0.8,0.8,77,0.00,,,0.05,WUHU216HW,2013-07-13 04:02:00,
2013-07-13 00:07:00,72.2,64.5,30.05,South,180,0.8,0.8,77,0.00,,,0.05,WUHU216HW,2013-07-13 04:07:00,
2013-07-13 00:30:00,71.8,64.2,30.05,NNE,23,0.8,0.8,77,0.00,,,0.00,WUHU216HW,2013-07-13 04:30:00,
2013-07-13 00:31:00,71.8,64.2,30.05,NNE,23,0.8,0.8,77,0.00,,,0.00,WUHU216HW,2013-07-13 04:31:00,
2013-07-13 00:36:00,71.8,64.2,30.05,NNE,23,0.8,0.8,77,0.00,,,0.00,WUHU216HW,2013-07-13 04:36:00,
2013-07-13 01:00:00,72.2,64.5,30.04,West,270,0.0,0.0,77,0.00,,,0.00,WUHU216HW,2013-07-13 05:00:00,
2013-07-13 01:05:00,72.2,64.5,30.04,West,270,0.0,0.0,77,0.00,,,0.00,WUHU216HW,2013-07-13 05:05:00,
2013-07-13 01:30:00,72.2,64.5,30.04,West,270,0.0,0.0,77,0.00,,,0.00,WUHU216HW,2013-07-13 05:30:00,
2013-07-13 01:31:00,72.2,64.5,30.04,West,270,0.0,0.0,77,0.00,,,0.00,WUHU216HW,2013-07-13 05:31:00,
2013-07-13 01:36:00,72.2,64.5,30.04,West,270,0.0,0.0,77,0.00,,,0.00,WUHU216HW,2013-07-13 05:36:00,
2013-07-13 02:00:00,72.4,64.7,30.04,NNE,23,0.4,0.4,77,0.00,,,0.00,WUHU216HW,2013-07-13 06:00:00,
2013-07-13 02:01:00,72.4,64.7,30.04,NNE,23,0.4,0.4,77,0.00,,,0.00,WUHU216HW,2013-07-13 06:01:00,
2013-07-13 02:06:00,72.4,64.7,30.04,NNE,23,0.4,0.4,77,0.00,,,0.00,WUHU216HW,2013-07-13 06:06:00,
2013-07-13 02:30:00,71.5,65.0,30.05,SSE,158,0.0,0.0,80,0.00,,,0.00,WUHU216HW,2013-07-13 06:30:00,
2013-07-13 02:31:00,71.5,65.0,30.05,SSE,158,0.0,0.0,80,0.00,,,0.00,WUHU216HW,2013-07-13 06:31:00,
2013-07-13 02:36:00,71.5,65.0,30.05,SSE,158,0.0,0.0,80,0.00,,,0.00,WUHU216HW,2013-07-13 06:36:00,
2013-07-13 03:00:00,71.5,65.0,30.05,NE,45,0.0,0.0,80,0.00,,,0.00,WUHU216HW,2013-07-13 07:00:00,
2013-07-13 03:01:00,71.5,65.0,30.05,NE,45,0.0,0.0,80,0.00,,,0.00,WUHU216HW,2013-07-13 07:01:00,
2013-07-13 03:06:00,71.5,65.0,30.05,NE,45,0.0,0.0,80,0.00,,,0.00,WUHU216HW,2013-07-13 07:06:00,
2013-07-13 03:30:00,71.5,64.3,30.05,NNW,338,0.0,0.0,78,0.00,,,0.00,WUHU216HW,2013-07-13 07:30:00,
2013-07-13 03:31:00,71.5,64.3,30.05,NNW,338,0.0,0.0,78,0.00,,,0.00,WUHU216HW,2013-07-13 07:31:00,
2013-07-13 03:36:00,71.5,64.3,30.05,NNW,338,0.0,0.0,78,0.00,,,0.00,WUHU216HW,2013-07-13 07:36:00,
2013-07-13 04:00:00,72.2,65.4,30.05,NNE,23,0.0,0.0,79,0.00,,,0.00,WUHU216HW,2013-07-13 08:00:00,
2013-07-13 04:01:00,72.2,65.4,30.05,NNE,23,0.0,0.0,79,0.00,,,0.00,WUHU216HW,2013-07-13 08:01:00,
2013-07-13 04:06:00,72.2,65.4,30.05,NNE,23,0.0,0.0,79,0.00,,,0.00,WUHU216HW,2013-07-13 08:06:00,
2013-07-13 04:30:00,72.2,65.4,30.06,NNE,23,0.0,0.0,79,0.00,,,0.00,WUHU216HW,2013-07-13 08:30:00,
2013-07-13 04:31:00,72.2,65.4,30.06,NNE,23,0.0,0.0,79,0.00,,,0.00,WUHU216HW,2013-07-13 08:31:00,
2013-07-13 04:36:00,72.2,65.4,30.06,NNE,23,0.0,0.0,79,0.00,,,0.00,WUHU216HW,2013-07-13 08:36:00,
2013-07-13 05:00:00,72.2,65.4,30.05,NNE,23,0.0,0.0,79,0.00,,,0.00,WUHU216HW,2013-07-13 09:00:00,
2013-07-13 05:01:00,72.2,65.4,30.05,NNE,23,0.0,0.0,79,0.00,,,0.00,WUHU216HW,2013-07-13 09:01:00,
2013-07-13 05:06:00,72.2,65.4,30.05,NNE,23,0.0,0.0,79,0.00,,,0.00,WUHU216HW,2013-07-13 09:06:00,
2013-07-13 05:30:00,71.5,64.6,30.06,NNE,23,0.0,0.0,79,0.00,,,0.00,WUHU216HW,2013-07-13 09:30:00,
2013-07-13 05:31:00,71.5,64.6,30.06,NNE,23,0.0,0.0,79,0.00,,,0.00,WUHU216HW,2013-07-13 09:31:00,
2013-07-13 05:36:00,71.5,64.6,30.06,NNE,23,0.0,0.0,79,0.00,,,0.00,WUHU216HW,2013-07-13 09:36:00,
2013-07-13 06:00:00,71.6,64.8,30.06,NNE,23,0.0,0.0,79,0.00,,,0.00,WUHU216HW,2013-07-13 10:00:00,
2013-07-13 06:01:00,71.6,64.8,30.06,NNE,23,0.0,0.0,79,0.00,,,0.00,WUHU216HW,2013-07-13 10:01:00,
2013-07-13 06:06:00,71.6,64.8,30.06,NNE,23,0.0,0.0,79,0.00,,,0.00,WUHU216HW,2013-07-13 10:06:00,
2013-07-13 06:30:00,71.3,65.2,30.07,NNE,23,0.0,0.0,81,0.00,,,0.00,WUHU216HW,2013-07-13 10:30:00,
2013-07-13 06:31:00,71.3,65.2,30.07,NNE,23,0.0,0.0,81,0.00,,,0.00,WUHU216HW,2013-07-13 10:31:00,
2013-07-13 06:36:00,71.3,65.2,30.07,NNE,23,0.0,0.0,81,0.00,,,0.00,WUHU216HW,2013-07-13 10:36:00,
2013-07-13 06:59:00,71.5,65.0,30.08,NE,45,0.0,0.0,80,0.00,,,0.00,WUHU216HW,2013-07-13 10:59:00,
2013-07-13 07:01:00,71.5,65.0,30.08,NE,45,0.0,0.0,80,0.00,,,0.00,WUHU216HW,2013-07-13 11:01:00,
2013-07-13 07:06:00,71.5,65.0,30.08,NE,45,0.0,0.0,80,0.00,,,0.00,WUHU216HW,2013-07-13 11:06:00,
2013-07-13 07:30:00,71.8,65.0,30.09,ENE,68,0.0,0.0,79,0.00,,,0.00,WUHU216HW,2013-07-13 11:30:00,
2013-07-13 07:31:00,71.8,65.0,30.09,ENE,68,0.0,0.0,79,0.00,,,0.00,WUHU216HW,2013-07-13 11:31:00,
2013-07-13 07:36:00,71.8,65.0,30.09,ENE,68,0.0,0.0,79,0.00,,,0.00,WUHU216HW,2013-07-13 11:36:00,
2013-07-13 07:59:00,72.0,65.2,30.11,SSW,203,0.8,0.8,79,0.00,,,0.00,WUHU216HW,2013-07-13 11:59:00,
2013-07-13 08:01:00,72.0,65.2,30.11,SSW,203,0.8,0.8,79,0.00,,,0.00,WUHU216HW,2013-07-13 12:01:00,
2013-07-13 08:06:00,72.0,65.2,30.11,SSW,203,0.8,0.8,79,0.00,,,0.00,WUHU216HW,2013-07-13 12:06:00,
2013-07-13 08:30:00,72.5,66.1,30.11,SE,135,0.0,0.0,80,0.00,,,0.00,WUHU216HW,2013-07-13 12:30:00,
2013-07-13 08:31:00,72.5,66.1,30.11,SE,135,0.0,0.0,80,0.00,,,0.00,WUHU216HW,2013-07-13 12:31:00,
2013-07-13 08:36:00,72.5,66.1,30.11,SE,135,0.0,0.0,80,0.00,,,0.00,WUHU216HW,2013-07-13 12:36:00,
2013-07-13 09:00:00,72.9,66.4,30.12,NE,45,0.8,0.8,80,0.00,,,0.00,WUHU216HW,2013-07-13 13:00:00,
2013-07-13 09:01:00,72.9,66.4,30.12,NE,45,0.8,0.8,80,0.00,,,0.00,WUHU216HW,2013-07-13 13:01:00,
2013-07-13 09:06:00,72.9,66.4,30.12,NE,45,0.8,0.8,80,0.00,,,0.00,WUHU216HW,2013-07-13 13:06:00,
2013-07-13 09:30:00,73.4,67.0,30.12,East,90,0.4,0.4,80,0.00,,,0.00,WUHU216HW,2013-07-13 13:30:00,
2013-07-13 09:31:00,73.4,67.0,30.12,East,90,0.4,0.4,80,0.00,,,0.00,WUHU216HW,2013-07-13 13:31:00,
2013-07-13 09:36:00,73.4,67.0,30.12,East,90,0.4,0.4,80,0.00,,,0.00,WUHU216HW,2013-07-13 13:36:00,
2013-07-13 10:00:00,72.7,66.6,30.12,South,180,0.0,0.0,81,0.00,,,0.00,WUHU216HW,2013-07-13 14:00:00,
2013-07-13 10:01:00,72.7,66.6,30.12,South,180,0.0,0.0,81,0.00,,,0.00,WUHU216HW,2013-07-13 14:01:00,
2013-07-13 10:06:00,72.7,66.6,30.12,South,180,0.0,0.0,81,0.00,,,0.00,WUHU216HW,2013-07-13 14:06:00,
2013-07-13 10:30:00,74.5,67.7,30.12,SW,225,0.4,0.4,79,0.00,,,0.00,WUHU216HW,2013-07-13 14:30:00,
2013-07-13 10:31:00,74.5,67.7,30.12,SW,225,0.4,0.4,79,0.00,,,0.00,WUHU216HW,2013-07-13 14:31:00,
2013-07-13 10:36:00,74.5,67.7,30.12,SW,225,0.4,0.4,79,0.00,,,0.00,WUHU216HW,2013-07-13 14:36:00,
2013-07-13 11:00:00,76.0,68.7,30.13,ENE,68,0.4,0.4,78,0.00,,,0.00,WUHU216HW,2013-07-13 15:00:00,
2013-07-13 11:01:00,76.0,68.7,30.13,ENE,68,0.4,0.4,78,0.00,,,0.00,WUHU216HW,2013-07-13 15:01:00,
2013-07-13 11:06:00,76.0,68.7,30.13,ENE,68,0.4,0.4,78,0.00,,,0.00,WUHU216HW,2013-07-13 15:06:00,
2013-07-13 11:30:00,74.9,68.1,30.13,ESE,113,0.0,0.0,79,0.00,,,0.00,WUHU216HW,2013-07-13 15:30:00,
2013-07-13 11:31:00,74.9,68.1,30.13,ESE,113,0.0,0.0,79,0.00,,,0.00,WUHU216HW,2013-07-13 15:31:00,
2013-07-13 11:36:00,74.9,68.1,30.13,ESE,113,0.0,0.0,79,0.00,,,0.00,WUHU216HW,2013-07-13 15:36:00,
2013-07-13 11:59:00,75.4,68.1,30.14,WSW,248,0.4,0.4,78,0.00,,,0.00,WUHU216HW,2013-07-13 15:59:00,
2013-07-13 12:01:00,75.4,68.1,30.14,WSW,248,0.4,0.4,78,0.00,,,0.00,WUHU216HW,2013-07-13 16:01:00,
2013-07-13 12:06:00,75.4,68.1,30.14,WSW,248,0.4,0.4,78,0.00,,,0.00,WUHU216HW,2013-07-13 16:06:00,
2013-07-13 12:29:00,75.6,68.3,30.14,SE,135,0.0,0.0,78,0.00,,,0.00,WUHU216HW,2013-07-13 16:29:00,
2013-07-13 12:31:00,75.6,68.3,30.14,SE,135,0.0,0.0,78,0.00,,,0.00,WUHU216HW,2013-07-13 16:31:00,
2013-07-13 12:36:00,75.6,68.3,30.14,SE,135,0.0,0.0,78,0.00,,,0.00,WUHU216HW,2013-07-13 16:36:00,
2013-07-13 12:59:00,75.2,68.4,30.14,ESE,113,0.0,0.0,79,0.00,,,0.00,WUHU216HW,2013-07-13 16:59:00,
2013-07-13 13:01:00,75.2,68.4,30.14,ESE,113,0.0,0.0,79,0.00,,,0.00,WUHU216HW,2013-07-13 17:01:00,
2013-07-13 13:06:00,75.2,68.4,30.14,ESE,113,0.0,0.0,79,0.00,,,0.00,WUHU216HW,2013-07-13 17:06:00,
2013-07-13 13:29:00,75.6,69.4,30.15,SSE,158,0.0,0.0,81,0.02,,,0.02,WUHU216HW,2013-07-13 17:29:00,
2013-07-13 13:31:00,75.6,69.4,30.15,SSE,158,0.0,0.0,81,0.02,,,0.02,WUHU216HW,2013-07-13 17:31:00,
2013-07-13 13:36:00,75.6,69.4,30.15,SSE,158,0.0,0.0,81,0.02,,,0.02,WUHU216HW,2013-07-13 17:36:00,
2013-07-13 13:59:00,76.9,70.2,30.13,North,0,0.0,0.0,80,0.00,,,0.02,WUHU216HW,2013-07-13 17:59:00,
2013-07-13 14:01:00,76.9,70.2,30.13,North,0,0.0,0.0,80,0.00,,,0.02,WUHU216HW,2013-07-13 18:01:00,
2013-07-13 14:06:00,76.9,70.2,30.13,North,0,0.0,0.0,80,0.00,,,0.02,WUHU216HW,2013-07-13 18:06:00,
2013-07-13 14:29:00,77.6,70.1,30.13,ENE,68,0.4,0.4,78,0.00,,,0.02,WUHU216HW,2013-07-13 18:29:00,
2013-07-13 14:31:00,77.6,70.1,30.13,ENE,68,0.4,0.4,78,0.00,,,0.02,WUHU216HW,2013-07-13 18:31:00,
2013-07-13 14:36:00,77.6,70.1,30.13,ENE,68,0.4,0.4,78,0.00,,,0.02,WUHU216HW,2013-07-13 18:36:00,
2013-07-13 15:00:00,77.0,69.7,30.12,SE,135,0.0,0.0,78,0.00,,,0.02,WUHU216HW,2013-07-13 19:00:00,
2013-07-13 15:01:00,77.0,69.7,30.12,SE,135,0.0,0.0,78,0.00,,,0.02,WUHU216HW,2013-07-13 19:01:00,
2013-07-13 15:06:00,77.0,69.7,30.12,SE,135,0.0,0.0,78,0.00,,,0.02,WUHU216HW,2013-07-13 19:06:00,
2013-07-13 15:30:00,76.0,69.0,30.13,SSE,158,0.8,0.8,79,0.00,,,0.04,WUHU216HW,2013-07-13 19:30:00,
2013-07-13 15:31:00,76.0,69.0,30.13,SSE,158,0.8,0.8,79,0.00,,,0.04,WUHU216HW,2013-07-13 19:31:00,
2013-07-13 15:36:00,76.0,69.0,30.13,SSE,158,0.8,0.8,79,0.00,,,0.04,WUHU216HW,2013-07-13 19:36:00,
2013-07-13 16:00:00,75.4,69.3,30.12,NE,45,1.8,1.8,81,0.06,,,0.14,WUHU216HW,2013-07-13 20:00:00,
2013-07-13 16:01:00,75.6,69.4,30.12,NNW,338,0.4,0.4,81,0.04,,,0.08,WUHU216HW,2013-07-13 20:01:00,
2013-07-13 16:06:00,75.4,69.3,30.12,NE,45,1.8,1.8,81,0.06,,,0.14,WUHU216HW,2013-07-13 20:06:00,
2013-07-13 16:30:00,76.7,70.4,30.13,NNW,338,0.8,0.8,81,0.00,,,0.14,WUHU216HW,2013-07-13 20:30:00,
2013-07-13 16:31:00,76.7,70.4,30.13,NNW,338,0.8,0.8,81,0.00,,,0.14,WUHU216HW,2013-07-13 20:31:00,
2013-07-13 16:36:00,76.7,70.4,30.13,NNW,338,0.8,0.8,81,0.00,,,0.14,WUHU216HW,2013-07-13 20:36:00,
2013-07-13 17:00:00,76.7,70.0,30.12,East,90,0.0,0.0,80,0.00,,,0.14,WUHU216HW,2013-07-13 21:00:00,
2013-07-13 17:01:00,76.7,70.0,30.12,East,90,0.0,0.0,80,0.00,,,0.14,WUHU216HW,2013-07-13 21:01:00,
2013-07-13 17:06:00,76.7,70.0,30.12,East,90,0.0,0.0,80,0.00,,,0.14,WUHU216HW,2013-07-13 21:06:00,
2013-07-13 17:30:00,76.1,69.6,30.13,SW,225,0.0,0.0,80,0.00,,,0.14,WUHU216HW,2013-07-13 21:30:00,
2013-07-13 17:31:00,76.1,69.6,30.13,SW,225,0.0,0.0,80,0.00,,,0.14,WUHU216HW,2013-07-13 21:31:00,
2013-07-13 17:36:00,76.1,69.6,30.13,SW,225,0.0,0.0,80,0.00,,,0.14,WUHU216HW,2013-07-13 21:36:00,
2013-07-13 18:00:00,76.3,69.8,30.12,ENE,68,0.0,0.0,80,0.02,,,0.16,WUHU216HW,2013-07-13 22:00:00,
2013-07-13 18:01:00,76.3,69.8,30.12,ENE,68,0.0,0.0,80,0.02,,,0.16,WUHU216HW,2013-07-13 22:01:00,
2013-07-13 18:06:00,76.3,69.8,30.12,ENE,68,0.0,0.0,80,0.02,,,0.16,WUHU216HW,2013-07-13 22:06:00,
2013-07-13 18:30:00,76.1,69.6,30.13,SE,135,0.0,0.0,80,0.01,,,0.17,WUHU216HW,2013-07-13 22:30:00,
2013-07-13 18:31:00,76.1,69.6,30.13,SE,135,0.0,0.0,80,0.01,,,0.17,WUHU216HW,2013-07-13 22:31:00,
2013-07-13 18:36:00,76.1,69.6,30.13,SE,135,0.0,0.0,80,0.01,,,0.17,WUHU216HW,2013-07-13 22:36:00,
2013-07-13 19:00:00,76.0,69.8,30.12,South,180,0.0,0.0,81,0.00,,,0.17,WUHU216HW,2013-07-13 23:00:00,
2013-07-13 19:01:00,76.0,69.8,30.12,South,180,0.0,0.0,81,0.00,,,0.17,WUHU216HW,2013-07-13 23:01:00,
2013-07-13 19:06:00,76.0,69.8,30.12,South,180,0.0,0.0,81,0.00,,,0.17,WUHU216HW,2013-07-13 23:06:00,
2013-07-13 19:30:00,76.7,70.4,30.12,SE,135,0.4,0.4,81,0.00,,,0.17,WUHU216HW,2013-07-13 23:30:00,
2013-07-13 19:31:00,76.7,70.4,30.12,SE,135,0.4,0.4,81,0.00,,,0.17,WUHU216HW,2013-07-13 23:31:00,
2013-07-13 19:36:00,76.7,70.4,30.12,SE,135,0.4,0.4,81,0.00,,,0.17,WUHU216HW,2013-07-13 23:36:00,
2013-07-13 19:59:00,76.9,69.9,30.13,ENE,68,0.0,0.0,79,0.00,,,0.17,WUHU216HW,2013-07-13 23:59:00,
2013-07-13 20:01:00,76.9,69.9,30.13,ENE,68,0.0,0.0,79,0.00,,,0.17,WUHU216HW,2013-07-14 00:01:00,
2013-07-13 20:06:00,76.9,69.9,30.13,ENE,68,0.0,0.0,79,0.00,,,0.17,WUHU216HW,2013-07-14 00:06:00,
2013-07-13 20:30:00,76.1,69.2,30.14,ENE,68,0.0,0.0,79,0.00,,,0.17,WUHU216HW,2013-07-14 00:30:00,
2013-07-13 20:31:00,76.1,69.2,30.14,ENE,68,0.0,0.0,79,0.00,,,0.17,WUHU216HW,2013-07-14 00:31:00,
2013-07-13 20:36:00,76.1,69.2,30.14,ENE,68,0.0,0.0,79,0.00,,,0.17,WUHU216HW,2013-07-14 00:36:00,
2013-07-13 20:59:00,75.6,69.1,30.15,South,180,0.8,0.8,80,0.00,,,0.17,WUHU216HW,2013-07-14 00:59:00,
2013-07-13 21:01:00,75.6,69.1,30.15,South,180,0.8,0.8,80,0.00,,,0.17,WUHU216HW,2013-07-14 01:01:00,
2013-07-13 21:06:00,75.6,69.1,30.15,South,180,0.8,0.8,80,0.00,,,0.17,WUHU216HW,2013-07-14 01:06:00,
2013-07-13 21:30:00,75.2,69.1,30.16,NNE,23,0.4,0.4,81,0.00,,,0.17,WUHU216HW,2013-07-14 01:30:00,
2013-07-13 21:31:00,75.2,69.1,30.16,NNE,23,0.4,0.4,81,0.00,,,0.17,WUHU216HW,2013-07-14 01:31:00,
2013-07-13 21:36:00,75.2,69.1,30.16,NNE,23,0.4,0.4,81,0.00,,,0.17,WUHU216HW,2013-07-14 01:36:00,
2013-07-13 21:59:00,75.8,68.9,30.17,ENE,68,0.0,0.0,79,0.00,,,0.17,WUHU216HW,2013-07-14 01:59:00,
2013-07-13 22:01:00,75.8,68.9,30.17,ENE,68,0.0,0.0,79,0.00,,,0.17,WUHU216HW,2013-07-14 02:01:00,
2013-07-13 22:06:00,75.8,68.9,30.17,ENE,68,0.0,0.0,79,0.00,,,0.17,WUHU216HW,2013-07-14 02:06:00,
2013-07-13 22:30:00,75.2,68.4,30.17,SSW,203,0.8,0.8,79,0.00,,,0.17,WUHU216HW,2013-07-14 02:30:00,
2013-07-13 22:31:00,75.2,68.4,30.17,SSW,203,0.8,0.8,79,0.00,,,0.17,WUHU216HW,2013-07-14 02:31:00,
2013-07-13 22:36:00,75.2,68.4,30.17,SSW,203,0.8,0.8,79,0.00,,,0.17,WUHU216HW,2013-07-14 02:36:00,
2013-07-13 22:59:00,74.9,68.4,30.18,ENE,68,1.8,1.8,80,0.00,,,0.17,WUHU216HW,2013-07-14 02:59:00,
2013-07-13 23:01:00,74.9,68.4,30.18,ENE,68,1.8,1.8,80,0.00,,,0.17,WUHU216HW,2013-07-14 03:01:00,
2013-07-13 23:06:00,74.9,68.4,30.18,ENE,68,1.8,1.8,80,0.00,,,0.17,WUHU216HW,2013-07-14 03:06:00,
2013-07-13 23:30:00,75.4,68.5,30.19,ESE,113,0.4,0.4,79,0.00,,,0.17,WUHU216HW,2013-07-14 03:30:00,
2013-07-13 23:31:00,75.4,68.5,30.19,ESE,113,0.4,0.4,79,0.00,,,0.17,WUHU216HW,2013-07-14 03:31:00,
2013-07-13 23:36:00,75.4,68.5,30.19,ESE,113,0.4,0.4,79,0.00,,,0.17,WUHU216HW,2013-07-14 03:36:00,
2013-07-13 23:59:00,75.1,67.8,30.19,East,90,0.0,0.0,78,0.00,,,0.17,WUHU216HW,2013-07-14 03:59:00,